Time;durP1;ratioP1;P1;durP2;ratioP2;P2;SDS_P1;SDS_P2;PMS_P1;PMS_P2;Temp;Humidity;BMP_temperature;BMP_pressure;BME280_temperature;BME280_humidity;BME280_pressure;Samples;Min_cycle;Max_cycle;Signal;HPM_P1;HPM_P2
2021/09/26 00:04:09;;;;;;;30.25;19.45;;;;;;;13.12;100.00;101342.53;10500904;28;20044;-60
2021/09/26 00:09:12;;;;;;;36.00;22.17;;;;;;;13.10;100.00;101349.66;10500514;28;20404;-60
2021/09/26 00:14:14;;;;;;;32.65;20.38;;;;;;;13.25;100.00;101336.56;10500458;28;20511;-60
2021/09/26 00:19:17;;;;;;;45.22;25.73;;;;;;;13.20;100.00;101334.19;10499037;28;20101;-60
2021/09/26 00:24:19;;;;;;;43.05;24.73;;;;;;;13.04;100.00;101344.75;10498962;28;20048;-60
2021/09/26 00:29:21;;;;;;;32.72;23.27;;;;;;;13.05;100.00;101335.94;10499445;28;20068;-60
2021/09/26 00:34:24;;;;;;;47.13;26.80;;;;;;;12.90;100.00;101339.47;10499636;28;20052;-60
2021/09/26 00:39:26;;;;;;;29.83;19.85;;;;;;;13.30;100.00;101340.59;10499434;28;20052;-60
2021/09/26 00:44:29;;;;;;;41.30;25.10;;;;;;;13.14;100.00;101335.38;10499740;28;20048;-60
2021/09/26 00:49:31;;;;;;;40.67;26.38;;;;;;;13.23;100.00;101334.00;10499305;28;20045;-60
2021/09/26 00:54:36;;;;;;;33.88;22.15;;;;;;;13.30;100.00;101340.59;10499518;28;20066;-60
2021/09/26 00:59:39;;;;;;;36.30;22.90;;;;;;;13.30;100.00;101323.97;10497895;28;20063;-60
2021/09/26 01:04:42;;;;;;;37.35;22.95;;;;;;;13.17;100.00;101318.59;10497577;28;20386;-60
2021/09/26 01:10:12;;;;;;;30.73;20.80;;;;;;;13.32;100.00;101317.69;10498256;28;20433;-60
2021/09/26 01:15:23;;;;;;;41.20;25.00;;;;;;;12.95;100.00;101322.50;10497406;28;20044;-61
2021/09/26 01:20:37;;;;;;;35.65;23.25;;;;;;;12.92;100.00;101314.78;10497211;28;20071;-60
2021/09/26 01:25:58;;;;;;;29.90;20.10;;;;;;;12.94;100.00;101318.16;10498056;28;20044;-60
2021/09/26 01:31:09;;;;;;;30.67;19.77;;;;;;;12.74;100.00;101322.00;10498917;28;20067;-60
2021/09/26 01:36:15;;;;;;;36.70;20.98;;;;;;;12.76;100.00;101314.84;10496909;28;20055;-60
2021/09/26 01:41:44;;;;;;;29.65;18.45;;;;;;;12.64;100.00;101316.41;10509289;28;20060;-61
2021/09/26 01:46:50;;;;;;;28.98;18.67;;;;;;;12.47;100.00;101316.53;10508544;28;20423;-60
2021/09/26 01:51:54;;;;;;;28.30;18.88;;;;;;;12.51;100.00;101315.44;10510481;28;20055;-61
2021/09/26 01:56:56;;;;;;;24.13;17.88;;;;;;;12.39;100.00;101316.97;10493445;28;20534;-60
2021/09/26 02:01:59;;;;;;;21.50;16.23;;;;;;;12.44;100.00;101303.59;10511452;28;20055;-60
2021/09/26 02:07:02;;;;;;;28.95;19.48;;;;;;;12.51;100.00;101312.81;10511141;28;20040;-60
2021/09/26 02:12:04;;;;;;;18.75;16.02;;;;;;;12.51;100.00;101307.53;10511666;28;20056;-60
2021/09/26 02:17:07;;;;;;;19.95;13.90;;;;;;;12.40;100.00;101297.63;10509854;28;20055;-60
2021/09/26 02:22:10;;;;;;;19.17;13.30;;;;;;;12.59;100.00;101293.97;10511154;28;20048;-61
2021/09/26 02:27:13;;;;;;;19.30;12.98;;;;;;;12.31;100.00;101303.44;10509528;28;20059;-60
2021/09/26 02:32:15;;;;;;;22.00;14.45;;;;;;;12.38;100.00;101290.81;10509681;28;20439;-60
2021/09/26 02:37:18;;;;;;;21.15;15.05;;;;;;;12.29;100.00;101299.19;10510696;28;20052;-60
2021/09/26 02:42:43;;;;;;;20.50;13.98;;;;;;;12.12;100.00;101285.25;10510528;28;20408;-60
2021/09/26 02:48:06;;;;;;;16.73;14.30;;;;;;;12.19;100.00;101281.34;10510600;28;20049;-61
2021/09/26 02:53:10;;;;;;;23.27;15.80;;;;;;;12.11;100.00;101287.97;10503038;28;20055;-60
2021/09/26 02:58:13;;;;;;;15.50;11.65;;;;;;;12.34;100.00;101295.38;10503357;28;20522;-60
2021/09/26 03:03:17;;;;;;;19.30;13.95;;;;;;;12.20;100.00;101290.06;10503417;28;20515;-60
2021/09/26 03:08:20;;;;;;;12.88;11.32;;;;;;;12.34;100.00;101299.75;10504150;28;20052;-61
2021/09/26 03:13:23;;;;;;;17.60;12.02;;;;;;;12.22;100.00;101294.28;10503047;28;20507;-60
2021/09/26 03:18:25;;;;;;;22.10;15.88;;;;;;;12.36;100.00;101290.06;10503051;28;20405;-60
2021/09/26 03:23:28;;;;;;;16.35;12.15;;;;;;;12.48;100.00;101283.25;10502572;28;20048;-61
2021/09/26 03:28:30;;;;;;;14.95;11.65;;;;;;;12.59;100.00;101286.94;10502619;28;20229;-60
2021/09/26 03:33:32;;;;;;;15.52;12.52;;;;;;;12.60;100.00;101280.72;10502596;28;20059;-60
2021/09/26 03:38:35;;;;;;;14.93;12.05;;;;;;;12.80;100.00;101273.47;10500770;28;20040;-61
2021/09/26 03:43:37;;;;;;;17.83;13.13;;;;;;;12.80;100.00;101270.84;10502057;28;20060;-59
2021/09/26 03:48:39;;;;;;;20.23;15.18;;;;;;;12.90;100.00;101279.88;10501471;28;20052;-61
2021/09/26 03:53:42;;;;;;;21.70;15.85;;;;;;;12.99;100.00;101278.47;10501755;28;20396;-60
2021/09/26 03:58:44;;;;;;;23.27;17.58;;;;;;;13.14;100.00;101267.03;10501265;28;20071;-60
2021/09/26 04:03:46;;;;;;;21.25;17.27;;;;;;;13.10;100.00;101267.34;10500686;28;20508;-60
2021/09/26 04:08:49;;;;;;;22.27;16.02;;;;;;;13.26;100.00;101259.34;10500644;28;20060;-61
2021/09/26 04:13:51;;;;;;;22.95;17.55;;;;;;;13.22;100.00;101265.75;10500695;28;20055;-60
2021/09/26 04:18:53;;;;;;;26.52;19.45;;;;;;;13.31;100.00;101266.00;10500520;28;20047;-61
2021/09/26 04:23:56;;;;;;;27.95;19.30;;;;;;;13.32;100.00;101269.53;10500076;28;20047;-61
2021/09/26 04:28:58;;;;;;;19.33;14.63;;;;;;;13.55;100.00;101273.38;10498719;28;20055;-61
2021/09/26 04:34:01;;;;;;;29.13;18.85;;;;;;;13.50;100.00;101270.16;10500465;28;20056;-60
2021/09/26 04:39:04;;;;;;;22.23;16.85;;;;;;;13.63;100.00;101271.06;10499471;28;20055;-60
2021/09/26 04:44:06;;;;;;;22.25;18.20;;;;;;;13.76;100.00;101268.53;10499766;28;20049;-61
2021/09/26 04:49:09;;;;;;;24.55;18.48;;;;;;;13.90;100.00;101272.91;10499255;28;20045;-61
2021/09/26 04:54:11;;;;;;;24.42;18.65;;;;;;;14.05;100.00;101271.91;10498956;28;20480;-60
2021/09/26 04:59:15;;;;;;;25.50;18.23;;;;;;;14.29;100.00;101263.41;10499029;28;20049;-61
2021/09/26 05:04:17;;;;;;;23.60;19.50;;;;;;;14.13;100.00;101261.75;10498350;28;20044;-60
2021/09/26 05:09:20;;;;;;;26.85;17.88;;;;;;;14.15;100.00;101261.63;10497397;28;20051;-60
2021/09/26 05:14:22;;;;;;;22.42;17.65;;;;;;;14.34;100.00;101261.31;10497691;28;20489;-60
2021/09/26 05:19:24;;;;;;;25.95;18.92;;;;;;;14.16;100.00;101263.34;10498608;28;20045;-60
2021/09/26 05:24:28;;;;;;;27.27;20.30;;;;;;;14.27;100.00;101266.13;10498216;28;20067;-60
2021/09/26 05:29:31;;;;;;;25.35;20.30;;;;;;;14.24;100.00;101274.22;10498015;28;20060;-60
2021/09/26 05:34:33;;;;;;;22.00;16.20;;;;;;;14.52;100.00;101268.91;10498230;28;20052;-61
2021/09/26 05:39:35;;;;;;;23.88;16.48;;;;;;;14.65;100.00;101257.47;10497969;28;20130;-60
2021/09/26 05:44:38;;;;;;;18.25;15.40;;;;;;;14.52;100.00;101264.47;10498511;28;20052;-60
2021/09/26 05:49:41;;;;;;;22.60;16.17;;;;;;;14.64;100.00;101271.63;10497775;28;20044;-60
2021/09/26 05:54:44;;;;;;;20.63;16.08;;;;;;;14.73;100.00;101269.31;10498118;28;20052;-61
2021/09/26 05:59:47;;;;;;;23.77;18.92;;;;;;;14.69;100.00;101276.56;10497826;28;20071;-60
2021/09/26 06:04:50;;;;;;;24.15;18.23;;;;;;;14.88;100.00;101273.56;10497918;28;20056;-60
2021/09/26 06:09:53;;;;;;;24.75;17.85;;;;;;;14.93;100.00;101275.84;10497083;28;20401;-61
2021/09/26 06:14:55;;;;;;;23.98;14.80;;;;;;;14.86;100.00;101272.78;10497273;28;20515;-60
2021/09/26 06:19:58;;;;;;;21.10;17.00;;;;;;;14.74;100.00;101271.00;10496391;28;20053;-60
2021/09/26 06:25:00;;;;;;;25.55;19.25;;;;;;;14.90;100.00;101262.91;10499340;28;20432;-60
2021/09/26 06:30:04;;;;;;;23.33;18.38;;;;;;;14.98;100.00;101263.22;10505222;28;20120;-60
2021/09/26 06:35:07;;;;;;;22.00;17.95;;;;;;;15.05;100.00;101264.47;10504411;28;20488;-60
2021/09/26 06:40:10;;;;;;;21.05;17.20;;;;;;;15.50;100.00;101272.78;10504111;28;20048;-60
2021/09/26 06:45:13;;;;;;;29.33;19.98;;;;;;;15.44;100.00;101282.94;10504359;28;20052;-60
2021/09/26 06:50:15;;;;;;;21.33;17.17;;;;;;;15.48;100.00;101281.75;10502699;28;20057;-60
2021/09/26 06:55:18;;;;;;;19.10;16.23;;;;;;;15.68;100.00;101286.44;10504081;28;20059;-60
2021/09/26 07:00:20;;;;;;;20.30;15.75;;;;;;;15.41;100.00;101295.34;10503698;28;20055;-60
2021/09/26 07:05:22;;;;;;;17.25;15.45;;;;;;;15.59;100.00;101300.31;10503226;28;20504;-60
2021/09/26 07:10:25;;;;;;;21.42;15.93;;;;;;;15.71;100.00;101295.97;10503300;28;20076;-60
2021/09/26 07:15:28;;;;;;;16.50;14.07;;;;;;;15.89;100.00;101310.50;10502225;28;20052;-60
2021/09/26 07:20:30;;;;;;;18.42;14.65;;;;;;;15.91;100.00;101305.13;10501439;28;20048;-60
2021/09/26 07:25:33;;;;;;;17.10;15.30;;;;;;;16.07;100.00;101302.22;10502605;28;20405;-60
2021/09/26 07:30:35;;;;;;;15.48;13.77;;;;;;;16.28;100.00;101311.22;10502364;28;20056;-60
2021/09/26 07:35:38;;;;;;;16.13;14.52;;;;;;;16.33;100.00;101314.34;10501698;28;20053;-60
2021/09/26 07:40:40;;;;;;;16.33;14.65;;;;;;;16.70;100.00;101311.63;10502145;28;20048;-60
2021/09/26 07:45:43;;;;;;;19.33;15.32;;;;;;;17.26;100.00;101326.81;10500668;28;20048;-60
2021/09/26 07:50:46;;;;;;;16.02;13.98;;;;;;;17.74;100.00;101330.19;10501693;28;20040;-60
2021/09/26 07:55:50;;;;;;;16.10;14.40;;;;;;;17.46;100.00;101340.28;10500516;28;20056;-60
2021/09/26 08:00:53;;;;;;;18.15;14.02;;;;;;;17.37;100.00;101352.44;10501011;28;20397;-61
2021/09/26 08:05:56;;;;;;;16.45;13.35;;;;;;;18.60;100.00;101344.44;10500850;28;20445;-60
2021/09/26 08:11:01;;;;;;;14.68;13.05;;;;;;;18.97;96.81;101330.78;10499956;28;20087;-61
2021/09/26 08:16:04;;;;;;;12.55;11.25;;;;;;;19.93;93.23;101333.22;10501366;28;20056;-61
2021/09/26 08:21:06;;;;;;;13.07;11.52;;;;;;;20.28;91.86;101315.94;10500604;28;20045;-60
2021/09/26 08:26:09;;;;;;;12.88;11.68;;;;;;;20.57;92.40;101314.09;10500115;28;20412;-60
2021/09/26 08:31:11;;;;;;;12.20;9.98;;;;;;;21.05;90.39;101328.34;10499891;28;20493;-61
2021/09/26 08:36:13;;;;;;;12.93;10.02;;;;;;;21.27;89.32;101337.00;10499732;28;20404;-61
2021/09/26 08:41:17;;;;;;;14.63;13.18;;;;;;;20.83;87.80;101341.97;10499687;28;20052;-61
2021/09/26 08:46:20;;;;;;;13.63;11.20;;;;;;;21.94;86.95;101339.50;10499643;28;20051;-61
2021/09/26 08:51:24;;;;;;;13.48;11.45;;;;;;;21.90;82.71;101349.63;10497454;28;20055;-60
2021/09/26 08:56:26;;;;;;;14.10;10.32;;;;;;;22.80;82.38;101339.03;10498907;28;20098;-61
2021/09/26 09:01:28;;;;;;;16.30;11.88;;;;;;;23.33;79.77;101345.25;10498900;28;20050;-61
2021/09/26 09:07:00;;;;;;;14.13;11.50;;;;;;;23.04;78.66;101337.53;10498562;28;20080;-61
2021/09/26 09:12:08;;;;;;;12.73;11.37;;;;;;;23.66;76.72;101356.13;10497682;28;20058;-60
2021/09/26 09:17:11;;;;;;;14.57;11.70;;;;;;;23.93;75.06;101358.56;10498542;28;20279;-61
2021/09/26 09:22:17;;;;;;;16.92;12.27;;;;;;;24.62;73.50;101345.00;10498250;28;20071;-61
2021/09/26 09:27:19;;;;;;;11.18;10.00;;;;;;;25.73;73.07;101348.00;10498454;28;20056;-61
2021/09/26 09:32:23;;;;;;;11.52;10.32;;;;;;;27.06;65.00;101347.72;10496733;28;20060;-61
2021/09/26 09:37:27;;;;;;;15.20;11.40;;;;;;;26.07;67.46;101354.88;10498164;28;20057;-61
2021/09/26 09:42:40;;;;;;;12.85;11.65;;;;;;;26.66;62.74;101359.69;10497886;28;20075;-60
2021/09/26 09:48:17;;;;;;;12.35;9.60;;;;;;;27.21;63.36;101358.50;10498091;28;20098;-61
2021/09/26 09:53:21;;;;;;;13.95;12.15;;;;;;;24.76;67.27;101356.06;10496566;28;20068;-60
2021/09/26 09:58:24;;;;;;;12.63;11.30;;;;;;;26.58;63.74;101360.59;10496087;28;20481;-61
2021/09/26 10:03:48;;;;;;;11.60;8.40;;;;;;;27.83;60.16;101361.84;10505944;28;20053;-61
2021/09/26 10:08:51;;;;;;;11.77;10.35;;;;;;;26.56;61.75;101362.59;10505897;28;20484;-60
2021/09/26 10:13:59;;;;;;;13.07;11.13;;;;;;;26.57;63.36;101361.59;10505625;28;20059;-61
2021/09/26 10:19:02;;;;;;;10.98;9.93;;;;;;;25.87;65.76;101365.19;10504734;28;20052;-60
2021/09/26 10:24:05;;;;;;;10.05;9.05;;;;;;;26.54;63.15;101364.63;10504855;28;20515;-61
2021/09/26 10:29:09;;;;;;;11.32;10.25;;;;;;;25.86;69.71;101368.91;10504582;28;20057;-60
2021/09/26 10:34:12;;;;;;;11.55;10.38;;;;;;;25.59;65.66;101365.66;10504899;28;20063;-61
2021/09/26 10:39:15;;;;;;;10.30;9.13;;;;;;;26.32;63.07;101374.34;10503002;28;20493;-60
2021/09/26 10:44:28;;;;;;;10.10;8.98;;;;;;;25.09;69.01;101375.63;10504921;28;20045;-61
2021/09/26 10:49:41;;;;;;;8.85;7.85;;;;;;;27.25;60.01;101357.13;10504072;28;20044;-60
2021/09/26 10:54:44;;;;;;;11.57;10.38;;;;;;;26.37;60.25;101376.50;10504408;28;20048;-60
2021/09/26 10:59:54;;;;;;;9.80;8.65;;;;;;;27.37;61.40;101370.97;10503382;28;20481;-61
2021/09/26 11:04:58;;;;;;;12.63;9.48;;;;;;;27.09;62.55;101375.28;10504624;28;20064;-61
2021/09/26 11:10:06;;;;;;;11.30;10.10;;;;;;;25.33;65.86;101373.94;10502846;28;20044;-61
2021/09/26 11:15:10;;;;;;;9.77;8.60;;;;;;;26.01;65.23;101385.94;10503408;28;20063;-60
2021/09/26 11:20:32;;;;;;;11.65;8.73;;;;;;;27.98;60.06;101367.22;10502474;28;20403;-61
2021/09/26 11:25:58;;;;;;;12.57;10.23;;;;;;;26.90;60.60;101366.72;10502359;28;20493;-60
2021/09/26 11:31:11;;;;;;;12.65;9.60;;;;;;;27.05;60.48;101374.81;10502588;28;20052;-60
2021/09/26 11:36:20;;;;;;;9.45;8.48;;;;;;;27.96;59.14;101371.97;10502774;28;20048;-60
2021/09/26 11:41:38;;;;;;;9.85;8.13;;;;;;;27.71;60.67;101356.09;10502112;28;20056;-59
2021/09/26 11:46:47;;;;;;;11.90;7.70;;;;;;;27.88;58.92;101359.41;10501697;28;20045;-59
2021/09/26 11:51:54;;;;;;;8.38;7.53;;;;;;;26.49;63.29;101369.69;10502335;28;20056;-60
2021/09/26 11:56:56;;;;;;;11.07;8.90;;;;;;;25.83;63.08;101359.34;10501607;28;20056;-60
2021/09/26 12:01:58;;;;;;;10.27;8.35;;;;;;;24.95;66.31;101362.91;10501809;28;20052;-60
2021/09/26 12:07:03;;;;;;;9.00;8.20;;;;;;;26.34;62.23;101353.53;10500569;28;20055;-59
2021/09/26 12:12:09;;;;;;;9.07;8.18;;;;;;;26.79;60.84;101346.50;10501050;28;20049;-60
2021/09/26 12:17:13;;;;;;;9.02;8.23;;;;;;;26.47;61.51;101347.56;10500602;28;20416;-60
2021/09/26 12:22:18;;;;;;;12.80;8.90;;;;;;;25.82;63.75;101352.28;10499905;28;20508;-60
2021/09/26 12:27:33;;;;;;;9.77;8.82;;;;;;;25.65;63.46;101356.06;10500159;28;20052;-60
2021/09/26 12:32:47;;;;;;;10.82;9.00;;;;;;;25.02;64.66;101350.53;10501147;28;20056;-60
2021/09/26 12:37:55;;;;;;;9.52;8.65;;;;;;;25.04;64.02;101343.97;10498709;28;20049;-59
2021/09/26 12:43:01;;;;;;;11.07;7.85;;;;;;;24.41;67.94;101341.94;10499441;28;20515;-60
2021/09/26 12:48:04;;;;;;;9.73;8.77;;;;;;;24.60;68.91;101341.66;10499620;28;20048;-60
2021/09/26 12:53:07;;;;;;;10.23;9.02;;;;;;;24.84;66.65;101340.81;10499725;28;20190;-60
2021/09/26 12:58:41;;;;;;;10.00;8.88;;;;;;;24.36;69.69;101353.19;10498205;28;20048;-60
2021/09/26 13:04:04;;;;;;;10.15;9.10;;;;;;;24.96;66.24;101340.47;10499493;28;20045;-60
2021/09/26 13:09:18;;;;;;;12.85;9.05;;;;;;;24.46;69.99;101353.84;10498642;28;20051;-60
2021/09/26 13:14:21;;;;;;;10.48;8.75;;;;;;;24.20;71.65;101353.13;10498082;28;20044;-60
2021/09/26 13:19:40;;;;;;;11.00;8.82;;;;;;;24.59;68.05;101356.03;10498238;28;20599;-60
2021/09/26 13:24:44;;;;;;;9.48;8.50;;;;;;;24.29;68.67;101361.03;10498721;28;20055;-60
2021/09/26 13:29:48;;;;;;;9.77;8.88;;;;;;;24.83;67.85;101360.59;10497847;28;20044;-60
2021/09/26 13:35:20;;;;;;;9.57;8.55;;;;;;;25.04;67.86;101368.06;10496863;28;20048;-60
2021/09/26 13:40:22;;;;;;;11.88;8.68;;;;;;;25.34;65.91;101370.25;10497562;28;20516;-60
2021/09/26 13:45:25;;;;;;;11.88;9.40;;;;;;;24.83;64.21;101365.94;10498088;28;20049;-59
2021/09/26 13:50:27;;;;;;;10.60;9.60;;;;;;;23.59;73.97;101371.94;10497655;28;20044;-60
2021/09/26 13:55:30;;;;;;;11.70;10.45;;;;;;;23.49;72.88;101373.91;10498527;28;20052;-60
2021/09/26 14:00:32;;;;;;;10.48;9.48;;;;;;;24.07;70.67;101372.31;10497249;28;20052;-60
2021/09/26 14:05:35;;;;;;;11.75;10.70;;;;;;;23.21;73.74;101370.56;10497523;28;20511;-60
2021/09/26 14:10:38;;;;;;;11.90;10.80;;;;;;;23.12;73.30;101391.88;10498235;28;20075;-60
2021/09/26 14:15:40;;;;;;;11.85;10.48;;;;;;;22.51;77.09;101396.19;10497272;28;20083;-60
2021/09/26 14:20:43;;;;;;;9.30;8.50;;;;;;;23.29;74.37;101392.00;10497377;28;20151;-60
2021/09/26 14:25:45;;;;;;;9.32;8.43;;;;;;;22.89;75.13;101386.16;10497224;28;20052;-60
2021/09/26 14:30:48;;;;;;;8.85;7.63;;;;;;;23.00;74.97;101382.41;10496968;28;20059;-60
2021/09/26 14:35:51;;;;;;;8.52;7.57;;;;;;;22.83;73.16;101381.44;10496730;28;20060;-60
2021/09/26 14:40:53;;;;;;;10.07;7.15;;;;;;;23.11;71.95;101373.34;10497422;28;20047;-60
2021/09/26 14:45:56;;;;;;;8.85;7.97;;;;;;;22.86;73.22;101373.09;10499300;28;20424;-60
2021/09/26 14:50:58;;;;;;;11.20;8.73;;;;;;;22.20;77.46;101375.13;10503946;28;20048;-60
2021/09/26 14:56:00;;;;;;;7.95;6.55;;;;;;;22.52;75.99;101381.00;10503354;28;20052;-60
2021/09/26 15:01:03;;;;;;;10.57;7.95;;;;;;;22.82;75.30;101383.25;10503534;28;20045;-60
2021/09/26 15:06:06;;;;;;;46.38;9.35;;;;;;;24.19;72.34;101381.75;10503547;28;20049;-60
2021/09/26 15:11:08;;;;;;;7.70;6.93;;;;;;;24.72;69.75;101376.97;10503382;28;20054;-60
2021/09/26 15:16:11;;;;;;;8.70;7.43;;;;;;;24.51;66.19;101376.59;10503224;28;20424;-60
2021/09/26 15:21:13;;;;;;;8.90;7.85;;;;;;;23.50;70.85;101378.25;10503769;28;20052;-60
2021/09/26 15:26:17;;;;;;;7.93;6.95;;;;;;;23.00;75.55;101377.06;10502959;28;20045;-60
2021/09/26 15:31:20;;;;;;;13.70;10.75;;;;;;;21.92;79.80;101379.63;10501414;28;20057;-60
2021/09/26 15:36:23;;;;;;;11.73;9.00;;;;;;;22.17;81.38;101388.75;10501158;28;20055;-60
2021/09/26 15:41:26;;;;;;;10.48;8.65;;;;;;;22.22;80.68;101386.47;10501665;28;20393;-60
2021/09/26 15:46:29;;;;;;;10.18;9.18;;;;;;;21.91;82.03;101385.97;10502192;28;20055;-60
2021/09/26 15:51:31;;;;;;;10.50;9.38;;;;;;;21.61;83.87;101385.25;10501732;28;20051;-60
2021/09/26 15:56:33;;;;;;;11.68;10.52;;;;;;;21.48;85.93;101388.25;10500850;28;20431;-60
2021/09/26 16:01:36;;;;;;;11.57;9.18;;;;;;;21.77;83.15;101383.78;10500094;28;20048;-60
2021/09/26 16:06:38;;;;;;;10.20;8.10;;;;;;;21.62;84.44;101386.94;10501023;28;20386;-60
2021/09/26 16:11:40;;;;;;;8.50;7.75;;;;;;;21.34;86.19;101376.19;10501069;28;20048;-60
2021/09/26 16:16:43;;;;;;;7.97;7.28;;;;;;;21.33;86.65;101381.66;10500714;28;20060;-59
2021/09/26 16:21:46;;;;;;;11.60;6.60;;;;;;;21.23;87.20;101372.88;10500594;28;20045;-59
2021/09/26 16:26:48;;;;;;;9.70;8.15;;;;;;;20.91;87.98;101382.03;10500141;28;20056;-60
2021/09/26 16:31:50;;;;;;;9.82;7.57;;;;;;;20.80;89.94;101377.69;10498780;28;20052;-60
2021/09/26 16:36:53;;;;;;;10.77;7.07;;;;;;;20.69;90.39;101378.66;10499915;28;20053;-60
2021/09/26 16:41:55;;;;;;;10.05;7.72;;;;;;;20.27;94.83;101376.22;10499733;28;20489;-60
2021/09/26 16:46:57;;;;;;;8.52;7.20;;;;;;;20.01;96.86;101379.38;10499304;28;20510;-60
2021/09/26 16:52:00;;;;;;;7.35;6.65;;;;;;;20.04;97.58;101392.41;10499111;28;20048;-60
2021/09/26 16:57:03;;;;;;;8.57;7.65;;;;;;;19.84;98.97;101385.34;10499367;28;20053;-60
2021/09/26 17:02:05;;;;;;;8.65;6.82;;;;;;;19.83;99.27;101388.97;10498979;28;20045;-60
2021/09/26 17:07:08;;;;;;;7.93;7.07;;;;;;;19.45;100.00;101383.34;10498546;28;20051;-60
2021/09/26 17:12:11;;;;;;;12.63;7.22;;;;;;;19.45;100.00;101386.00;10497690;28;20048;-60
2021/09/26 17:17:14;;;;;;;11.20;7.25;;;;;;;19.25;100.00;101386.84;10498498;28;20048;-60
2021/09/26 17:22:17;;;;;;;8.80;6.78;;;;;;;19.28;100.00;101387.44;10498281;28;20048;-60
2021/09/26 17:27:19;;;;;;;12.75;6.93;;;;;;;19.10;100.00;101391.66;10498143;28;20399;-60
2021/09/26 17:32:21;;;;;;;9.75;7.15;;;;;;;19.05;100.00;101388.53;10497930;28;20419;-60
2021/09/26 17:37:23;;;;;;;9.23;6.45;;;;;;;18.92;100.00;101399.31;10498387;28;20049;-60
2021/09/26 17:42:26;;;;;;;12.80;7.18;;;;;;;18.84;100.00;101407.06;10497968;28;20400;-60
2021/09/26 17:47:28;;;;;;;12.18;6.97;;;;;;;18.78;100.00;101410.19;10498208;28;20044;-60
2021/09/26 17:52:30;;;;;;;12.20;6.30;;;;;;;18.62;100.00;101410.63;10497615;28;20051;-60
2021/09/26 17:57:33;;;;;;;7.30;5.85;;;;;;;18.77;100.00;101414.66;10497927;28;20075;-60
2021/09/26 18:02:35;;;;;;;14.13;6.35;;;;;;;18.59;100.00;101414.34;10497425;28;20041;-60
2021/09/26 18:07:38;;;;;;;6.75;5.28;;;;;;;18.56;100.00;101426.06;10497228;28;20400;-60
2021/09/26 18:12:40;;;;;;;6.22;4.72;;;;;;;18.56;100.00;101430.53;10497515;28;20052;-60
2021/09/26 18:17:43;;;;;;;9.38;5.80;;;;;;;18.25;100.00;101429.50;10497300;28;20489;-60
2021/09/26 18:22:46;;;;;;;10.25;5.57;;;;;;;18.36;100.00;101433.00;10502610;28;20045;-60
2021/09/26 18:27:48;;;;;;;7.65;5.50;;;;;;;18.10;100.00;101437.69;10503665;28;20413;-60
2021/09/26 18:32:51;;;;;;;8.55;6.22;;;;;;;17.82;100.00;101429.25;10505150;28;20056;-60
2021/09/26 18:37:54;;;;;;;8.43;6.40;;;;;;;17.89;100.00;101432.31;10504693;28;20048;-60
2021/09/26 18:42:56;;;;;;;11.07;6.07;;;;;;;17.94;100.00;101437.25;10503061;28;20063;-60
2021/09/26 18:47:59;;;;;;;5.35;4.85;;;;;;;17.67;100.00;101433.09;10503010;28;20443;-59
2021/09/26 18:53:02;;;;;;;8.60;6.13;;;;;;;17.67;100.00;101434.88;10504020;28;20048;-60
2021/09/26 18:58:05;;;;;;;7.63;6.10;;;;;;;17.76;100.00;101435.03;10503461;28;20060;-59
2021/09/26 19:03:09;;;;;;;6.82;6.13;;;;;;;17.77;100.00;101436.72;10503543;28;20044;-60
2021/09/26 19:08:11;;;;;;;11.02;6.13;;;;;;;17.78;100.00;101435.75;10503544;28;20056;-60
2021/09/26 19:13:20;;;;;;;6.97;5.30;;;;;;;17.52;100.00;101444.88;10503542;28;20041;-61
2021/09/26 19:18:23;;;;;;;10.05;6.47;;;;;;;17.58;100.00;101431.16;10503069;28;20059;-60
2021/09/26 19:23:26;;;;;;;7.07;5.57;;;;;;;17.79;100.00;101442.75;10503139;28;20072;-60
2021/09/26 19:28:30;;;;;;;10.15;5.50;;;;;;;17.43;100.00;101443.75;10502649;28;20500;-60
2021/09/26 19:33:32;;;;;;;10.48;6.55;;;;;;;17.62;100.00;101440.56;10501919;28;20053;-60
2021/09/26 19:38:35;;;;;;;6.22;5.20;;;;;;;17.18;100.00;101448.28;10502242;28;20048;-60
2021/09/26 19:43:40;;;;;;;8.73;5.80;;;;;;;17.38;100.00;101451.22;10500611;28;20041;-60
2021/09/26 19:48:43;;;;;;;7.35;5.97;;;;;;;17.21;100.00;101461.25;10502046;28;20051;-60
2021/09/26 19:53:46;;;;;;;8.15;6.88;;;;;;;17.13;100.00;101465.44;10502192;28;20499;-60
2021/09/26 19:58:50;;;;;;;7.45;6.05;;;;;;;17.15;100.00;101468.84;10501707;28;20048;-60
2021/09/26 20:03:55;;;;;;;8.05;6.18;;;;;;;17.04;100.00;101470.44;10501389;28;20052;-60
2021/09/26 20:08:58;;;;;;;10.55;8.15;;;;;;;16.95;100.00;101468.50;10501864;28;20044;-60
2021/09/26 20:14:02;;;;;;;8.68;6.22;;;;;;;16.91;100.00;101482.91;10501024;28;20051;-60
2021/09/26 20:19:07;;;;;;;8.88;6.93;;;;;;;16.87;100.00;101477.00;10499228;28;20480;-60
2021/09/26 20:24:11;;;;;;;11.95;6.97;;;;;;;16.88;100.00;101478.69;10500388;28;20051;-60
2021/09/26 20:29:13;;;;;;;11.88;7.10;;;;;;;16.73;100.00;101479.78;10500583;28;20041;-60
2021/09/26 20:34:16;;;;;;;9.15;6.18;;;;;;;16.62;100.00;101474.41;10500406;28;20131;-60
2021/09/26 20:39:19;;;;;;;12.82;8.05;;;;;;;16.60;100.00;101477.16;10499749;28;20119;-61
2021/09/26 20:44:22;;;;;;;8.60;7.13;;;;;;;16.77;100.00;101470.66;10499396;28;20528;-60
2021/09/26 20:49:24;;;;;;;10.43;9.23;;;;;;;16.78;100.00;101472.34;10499336;28;20048;-60
2021/09/26 20:54:27;;;;;;;9.30;7.22;;;;;;;16.83;100.00;101466.75;10499591;28;20055;-60
2021/09/26 20:59:29;;;;;;;12.30;9.27;;;;;;;16.78;100.00;101459.13;10498171;28;20063;-60
2021/09/26 21:04:32;;;;;;;12.40;8.43;;;;;;;16.66;100.00;101460.88;10498217;28;20052;-60
2021/09/26 21:09:34;;;;;;;12.30;9.65;;;;;;;16.58;100.00;101465.88;10498715;28;20075;-60
2021/09/26 21:14:37;;;;;;;11.27;10.02;;;;;;;16.51;100.00;101464.63;10498857;28;20059;-60
2021/09/26 21:19:42;;;;;;;19.35;13.30;;;;;;;16.47;100.00;101457.84;10498858;28;20051;-60
2021/09/26 21:24:44;;;;;;;14.15;10.95;;;;;;;16.32;100.00;101455.38;10498601;28;20123;-60
2021/09/26 21:29:46;;;;;;;10.55;9.45;;;;;;;16.33;100.00;101456.22;10497876;28;20059;-59
2021/09/26 21:34:49;;;;;;;11.10;9.20;;;;;;;16.33;100.00;101449.13;10499234;28;20056;-59
2021/09/26 21:39:51;;;;;;;12.73;10.27;;;;;;;16.15;100.00;101453.94;10498471;28;20045;-60
2021/09/26 21:44:55;;;;;;;11.70;10.30;;;;;;;16.09;100.00;101446.44;10498404;28;20045;-60
2021/09/26 21:49:57;;;;;;;16.75;10.82;;;;;;;16.01;100.00;101448.75;10497548;28;20041;-60
2021/09/26 21:55:00;;;;;;;11.98;9.82;;;;;;;16.01;100.00;101438.19;10499490;28;20055;-60
2021/09/26 22:00:14;;;;;;;13.55;10.48;;;;;;;16.03;100.00;101433.66;10506001;28;20059;-60
2021/09/26 22:05:16;;;;;;;15.55;12.65;;;;;;;15.89;100.00;101434.63;10505217;28;20040;-60
2021/09/26 22:10:21;;;;;;;13.48;11.55;;;;;;;15.82;100.00;101441.28;10505695;28;20040;-60
2021/09/26 22:15:25;;;;;;;14.82;11.98;;;;;;;15.92;100.00;101446.75;10505463;28;20488;-59
2021/09/26 22:20:30;;;;;;;14.32;11.77;;;;;;;16.02;100.00;101439.03;10505231;28;20048;-61
2021/09/26 22:25:36;;;;;;;16.98;13.85;;;;;;;15.82;100.00;101445.69;10505229;28;20053;-60
2021/09/26 22:30:38;;;;;;;14.75;13.25;;;;;;;15.63;100.00;101452.22;10505422;28;20049;-60
2021/09/26 22:35:41;;;;;;;28.52;18.25;;;;;;;15.55;100.00;101433.41;10504902;28;20048;-60
2021/09/26 22:40:44;;;;;;;19.48;14.82;;;;;;;15.68;100.00;101442.19;10504673;28;20040;-60
2021/09/26 22:45:48;;;;;;;22.73;18.83;;;;;;;15.72;100.00;101438.41;10504564;28;20045;-59
2021/09/26 22:50:53;;;;;;;19.23;16.90;;;;;;;15.77;100.00;101438.97;10504275;28;20378;-60